createdAt,value
2023-03-26T00:01:47.223Z,99191.06
2023-03-26T00:06:49.168Z,99192.00
2023-03-26T00:11:50.910Z,99193.84
2023-03-26T00:16:53.773Z,99193.19
2023-03-26T00:21:57.865Z,99198.03
2023-03-26T00:26:59.815Z,99189.66
2023-03-26T00:32:01.859Z,99191.03
2023-03-26T00:37:03.596Z,99184.44
2023-03-26T00:42:07.300Z,99192.72
2023-03-26T00:47:08.994Z,99186.84
2023-03-26T00:52:13.469Z,99183.13
2023-03-26T00:57:22.744Z,99187.16
2023-03-26T01:02:33.424Z,99181.66
2023-03-26T01:07:35.315Z,99170.69
2023-03-26T01:12:37.058Z,99167.16
2023-03-26T01:17:38.964Z,99157.69
2023-03-26T01:22:49.451Z,99158.59
2023-03-26T01:27:54.730Z,99155.56
2023-03-26T01:33:14.371Z,99149.41
2023-03-26T01:38:46.840Z,99135.56
2023-03-26T01:43:58.451Z,99139.66
2023-03-26T01:49:00.109Z,99131.66
2023-03-26T01:54:05.337Z,99118.75
2023-03-26T01:59:16.848Z,99121.25
2023-03-26T02:04:26.619Z,99119.38
2023-03-26T02:09:32.215Z,99109.91
2023-03-26T02:14:34.385Z,99107.22
2023-03-26T02:19:36.839Z,99105.44
2023-03-26T02:24:38.815Z,99093.53
2023-03-26T02:29:41.167Z,99081.47
2023-03-26T02:34:43.245Z,99078.69
2023-03-26T02:39:45.176Z,99061.31
2023-03-26T02:44:46.845Z,99072.19
2023-03-26T02:49:48.513Z,99072.94
2023-03-26T02:54:50.336Z,99071.16
2023-03-26T02:59:52.938Z,99064.34
2023-03-26T03:05:01.437Z,99052.06
2023-03-26T03:10:04.352Z,99048.22
2023-03-26T03:15:06.394Z,99049.53
2023-03-26T03:20:14.345Z,99032.22
2023-03-26T03:25:17.620Z,99023.88
2023-03-26T03:30:19.266Z,99026.59
2023-03-26T03:35:21.285Z,99019.84
2023-03-26T03:40:22.953Z,99002.72
2023-03-26T03:45:24.579Z,99001.19
2023-03-26T03:50:26.985Z,98989.44
2023-03-26T03:55:28.690Z,98984.75
2023-03-26T04:00:30.746Z,98983.41
2023-03-26T04:05:33.216Z,98980.72
2023-03-26T04:10:34.834Z,98981.94
2023-03-26T04:15:36.620Z,98969.84
2023-03-26T04:20:42.006Z,98968.41
2023-03-26T04:25:48.570Z,98959.13
2023-03-26T04:30:53.802Z,98943.78
2023-03-26T04:35:57.004Z,98926.53
2023-03-26T04:41:01.185Z,98919.91
2023-03-26T04:46:04.651Z,98913.16
2023-03-26T04:51:10.222Z,98900.66
2023-03-26T04:56:37.090Z,98895.13
2023-03-26T05:01:40.294Z,98890.25
2023-03-26T05:06:42.166Z,98878.16
2023-03-26T05:11:43.811Z,98867.72
2023-03-26T05:16:47.878Z,98856.06
2023-03-26T05:21:49.459Z,98854.28
2023-03-26T05:26:51.767Z,98832.94
2023-03-26T05:31:53.456Z,98823.78
2023-03-26T05:36:55.068Z,98820.03
2023-03-26T05:41:56.681Z,98816.28
2023-03-26T05:46:58.312Z,98799.63
2023-03-26T05:51:59.950Z,98788.88
2023-03-26T05:57:01.613Z,98780.44
2023-03-26T06:02:03.479Z,98769.06
2023-03-26T06:07:05.105Z,98764.28
2023-03-26T06:12:08.279Z,98760.06
2023-03-26T06:17:10.715Z,98755.94
2023-03-26T06:22:12.523Z,98746.44
2023-03-26T06:27:14.199Z,98744.53
2023-03-26T06:32:20.068Z,98732.44
2023-03-26T06:37:22.357Z,98723.84
2023-03-26T06:42:31.970Z,98719.34
2023-03-26T06:47:45.771Z,98715.78
2023-03-26T06:52:47.446Z,98726.63
2023-03-26T06:57:50.950Z,98724.06
2023-03-26T07:02:52.744Z,98716.97
2023-03-26T07:07:54.575Z,98713.09
2023-03-26T07:12:56.335Z,98703.16
2023-03-26T07:17:58.070Z,98694.28
2023-03-26T07:23:00.047Z,98695.13
2023-03-26T07:28:22.198Z,98688.38
2023-03-26T07:33:34.114Z,98678.50
2023-03-26T07:39:09.580Z,98667.22
2023-03-26T07:45:02.363Z,98667.03
2023-03-26T07:50:07.730Z,98666.63
2023-03-26T07:55:14.475Z,98658.06
2023-03-26T08:00:29.199Z,98647.50
2023-03-26T08:05:35.182Z,98632.72
2023-03-26T08:10:43.224Z,98638.38
2023-03-26T08:16:08.242Z,98624.94
2023-03-26T08:21:31.895Z,98628.59
2023-03-26T08:26:45.473Z,98630.16
2023-03-26T08:31:49.497Z,98615.69
2023-03-26T08:36:51.613Z,98605.09
2023-03-26T08:42:21.111Z,98600.66
2023-03-26T08:47:47.236Z,98595.50
2023-03-26T08:53:26.192Z,98589.78
2023-03-26T08:58:36.662Z,98595.50
2023-03-26T09:03:41.465Z,98593.28
2023-03-26T09:09:07.457Z,98592.38
2023-03-26T09:14:39.468Z,98579.63
2023-03-26T09:19:56.265Z,98587.88
2023-03-26T09:25:23.956Z,98581.72
2023-03-26T09:30:37.305Z,98569.09
2023-03-26T09:35:54.259Z,98558.22
2023-03-26T09:41:08.121Z,98544.94
2023-03-26T09:46:28.707Z,98532.81
2023-03-26T09:51:49.431Z,98514.94
2023-03-26T09:56:57.818Z,98514.44
2023-03-26T10:02:46.382Z,98501.25
2023-03-26T10:08:07.237Z,98503.03
2023-03-26T10:13:23.741Z,98493.66
2023-03-26T10:18:33.916Z,98493.97
2023-03-26T10:23:45.266Z,98491.31
2023-03-26T10:28:55.717Z,98479.63
2023-03-26T10:34:06.073Z,98486.25
2023-03-26T10:39:36.851Z,98499.69
2023-03-26T10:44:49.424Z,98488.72
2023-03-26T10:50:23.077Z,98478.81
2023-03-26T10:55:32.961Z,98469.00
2023-03-26T11:00:43.430Z,98463.84
2023-03-26T11:05:57.072Z,98457.34
2023-03-26T11:11:11.146Z,98456.56
2023-03-26T11:16:19.990Z,98450.59
2023-03-26T11:21:38.962Z,98448.59
2023-03-26T11:26:49.688Z,98439.47
2023-03-26T11:32:03.667Z,98426.84
2023-03-26T11:37:16.138Z,98432.03
2023-03-26T11:42:21.813Z,98431.16
2023-03-26T11:47:35.328Z,98419.47
2023-03-26T11:52:37.469Z,98417.13
2023-03-26T11:57:45.587Z,98408.06
2023-03-26T12:02:48.815Z,98399.47
2023-03-26T12:07:54.791Z,98387.50
2023-03-26T12:12:59.631Z,98381.88
2023-03-26T12:18:23.933Z,98375.66
2023-03-26T12:23:57.904Z,98370.69
2023-03-26T12:29:06.906Z,98367.09
2023-03-26T12:34:18.455Z,98362.63
2023-03-26T12:40:09.489Z,98346.13
2023-03-26T12:49:59.461Z,98327.31
2023-03-26T12:55:13.267Z,98331.94
2023-03-26T13:00:21.450Z,98318.34
2023-03-26T13:05:41.726Z,98316.75
2023-03-26T13:11:21.032Z,98312.44
2023-03-26T13:16:36.381Z,98298.06
2023-03-26T13:21:40.810Z,98303.69
2023-03-26T13:26:56.459Z,98291.44
2023-03-26T13:32:07.202Z,98282.97
2023-03-26T13:37:17.321Z,98269.75
2023-03-26T13:42:37.665Z,98286.41
2023-03-26T13:47:46.003Z,98298.41
2023-03-26T13:53:12.478Z,98293.91
2023-03-26T13:58:24.165Z,98289.97
2023-03-26T14:03:51.555Z,98308.91
2023-03-26T14:09:06.871Z,98325.50
2023-03-26T14:14:17.804Z,98324.00
2023-03-26T14:19:54.681Z,98311.75
2023-03-26T14:25:20.375Z,98309.84
2023-03-26T14:30:51.343Z,98339.41
2023-03-26T14:36:18.002Z,98349.63
2023-03-26T14:41:33.666Z,98354.59
2023-03-26T14:46:56.903Z,98364.63
2023-03-26T14:52:07.352Z,98368.13
2023-03-26T14:57:09.879Z,98377.66
2023-03-26T15:02:32.848Z,98387.47
2023-03-26T15:07:52.700Z,98381.19
2023-03-26T15:13:30.716Z,98383.47
2023-03-26T15:18:57.222Z,98389.16
2023-03-26T15:24:26.617Z,98391.03
2023-03-26T15:29:55.894Z,98394.25
2023-03-26T15:35:24.134Z,98391.75
2023-03-26T15:40:25.700Z,98400.81
2023-03-26T15:45:40.566Z,98409.00
2023-03-26T15:51:46.551Z,98416.81
2023-03-26T15:56:55.186Z,98430.00
2023-03-26T16:02:44.640Z,98414.56
2023-03-26T16:08:14.858Z,98429.88
2023-03-26T16:13:25.321Z,98435.09
2023-03-26T16:18:49.960Z,98437.47
2023-03-26T16:24:12.625Z,98434.28
2023-03-26T16:29:14.478Z,98434.53
2023-03-26T16:34:26.260Z,98438.91
2023-03-26T16:40:20.906Z,98447.22
2023-03-26T16:45:37.110Z,98458.97
2023-03-26T16:51:04.400Z,98460.63
2023-03-26T16:56:15.891Z,98468.34
2023-03-26T17:01:27.615Z,98465.31
2023-03-26T17:07:09.046Z,98469.00
2023-03-26T17:13:01.183Z,98485.59
2023-03-26T17:18:36.910Z,98485.31
2023-03-26T17:24:19.316Z,98498.94
2023-03-26T17:30:04.000Z,98514.72
2023-03-26T17:35:09.319Z,98519.88
2023-03-26T17:40:46.571Z,98518.63
2023-03-26T17:46:03.264Z,98516.97
2023-03-26T17:51:30.860Z,98532.41
2023-03-26T17:56:37.831Z,98535.16
2023-03-26T18:01:42.240Z,98536.59
2023-03-26T18:07:19.564Z,98543.53
2023-03-26T18:12:45.337Z,98550.06
2023-03-26T18:17:47.941Z,98555.88
2023-03-26T18:22:51.691Z,98560.25
2023-03-26T18:27:53.502Z,98579.09
2023-03-26T18:33:13.210Z,98572.88
2023-03-26T18:38:36.900Z,98565.06
2023-03-26T18:43:44.215Z,98581.88
2023-03-26T18:48:47.026Z,98594.56
2023-03-26T18:53:58.439Z,98604.47
2023-03-26T18:59:02.565Z,98604.63
2023-03-26T19:04:07.078Z,98609.22
2023-03-26T19:09:23.721Z,98608.75
2023-03-26T19:14:28.040Z,98620.81
2023-03-26T19:19:33.755Z,98642.59
2023-03-26T19:24:37.124Z,98648.34
2023-03-26T19:29:39.361Z,98652.59
2023-03-26T19:34:41.224Z,98670.09
2023-03-26T19:39:46.220Z,98675.63
2023-03-26T19:44:48.151Z,98689.16
2023-03-26T19:49:56.801Z,98694.56
2023-03-26T19:55:02.888Z,98699.75
2023-03-26T20:00:13.350Z,98698.50
2023-03-26T20:05:26.500Z,98708.28
2023-03-26T20:10:28.257Z,98718.91
2023-03-26T20:15:34.255Z,98732.31
2023-03-26T20:20:36.509Z,98748.25
2023-03-26T20:25:46.500Z,98756.41
2023-03-26T20:30:49.388Z,98769.53
2023-03-26T20:35:55.474Z,98771.09
2023-03-26T20:40:58.363Z,98782.97
2023-03-26T20:46:00.713Z,98795.94
2023-03-26T20:51:03.029Z,98806.22
2023-03-26T20:56:05.066Z,98817.81
2023-03-26T21:01:06.923Z,98836.75
2023-03-26T21:06:15.284Z,98839.06
2023-03-26T21:11:31.677Z,98849.84
2023-03-26T21:16:33.966Z,98867.41
2023-03-26T21:21:52.626Z,98864.56
2023-03-26T21:27:14.467Z,98886.75
2023-03-26T21:32:16.362Z,98893.88
2023-03-26T21:37:19.190Z,98923.53
2023-03-26T21:42:21.305Z,98924.25
2023-03-26T21:47:23.180Z,98938.72
2023-03-26T21:52:25.379Z,98958.63
2023-03-26T21:57:44.454Z,98969.09
2023-03-26T22:03:23.648Z,98986.16
2023-03-26T22:08:38.941Z,98998.50
2023-03-26T22:13:40.592Z,98996.25
2023-03-26T22:18:43.795Z,99023.88
2023-03-26T22:23:52.787Z,99035.19
2023-03-26T22:28:54.626Z,99050.69
2023-03-26T22:33:57.209Z,99054.97
2023-03-26T22:38:58.897Z,99072.84
2023-03-26T22:44:09.324Z,99084.09
2023-03-26T22:49:20.975Z,99098.63
2023-03-26T22:54:22.592Z,99110.13
2023-03-26T22:59:24.311Z,99121.56
2023-03-26T23:04:32.404Z,99140.25
2023-03-26T23:09:34.893Z,99166.41
2023-03-26T23:14:36.532Z,99179.72
2023-03-26T23:19:39.246Z,99182.97
2023-03-26T23:24:40.916Z,99203.50
2023-03-26T23:29:42.600Z,99226.88
2023-03-26T23:34:51.710Z,99239.75
2023-03-26T23:39:54.067Z,99258.09
2023-03-26T23:44:56.669Z,99260.78
2023-03-26T23:49:58.328Z,99286.97
2023-03-26T23:55:00.119Z,99294.31
